Time;durP1;ratioP1;P1;durP2;ratioP2;P2;SDS_P1;SDS_P2;PMS_P1;PMS_P2;Temp;Humidity;BMP_temperature;BMP_pressure;BME280_temperature;BME280_humidity;BME280_pressure;Samples;Min_cycle;Max_cycle;Signal;HPM_P1;HPM_P2
2022/03/31 00:00:04;;;;;;;29.15;13.85;;;;;;;;;;5067731;28;20086;-75
2022/03/31 00:02:29;;;;;;;46.17;20.30;;;;;;;;;;5070760;28;20390;-73
2022/03/31 00:04:55;;;;;;;44.53;19.65;;;;;;;;;;5077057;28;20091;-73
2022/03/31 00:07:20;;;;;;;36.35;19.08;;;;;;;;;;5076048;28;20044;-73
2022/03/31 00:09:47;;;;;;;30.77;13.27;;;;;;;;;;5069883;28;20442;-73
2022/03/31 00:12:13;;;;;;;40.20;14.50;;;;;;;;;;5074266;28;20027;-72
2022/03/31 00:14:38;;;;;;;28.67;13.73;;;;;;;;;;5093870;28;20020;-74
2022/03/31 00:17:04;;;;;;;24.02;10.95;;;;;;;;;;5079903;28;20448;-73
2022/03/31 00:19:29;;;;;;;27.20;11.60;;;;;;;;;;5081086;28;20028;-77
2022/03/31 00:21:55;;;;;;;29.60;11.88;;;;;;;;;;5071286;28;20564;-72
2022/03/31 00:24:21;;;;;;;27.20;12.68;;;;;;;;;;5077828;28;20024;-76
2022/03/31 00:26:47;;;;;;;26.92;11.80;;;;;;;;;;5083865;28;20035;-77
2022/03/31 00:29:12;;;;;;;29.48;12.10;;;;;;;;;;5079750;28;20043;-72
2022/03/31 00:31:39;;;;;;;28.88;13.70;;;;;;;;;;5066574;28;20339;-74
2022/03/31 00:34:04;;;;;;;31.33;14.68;;;;;;;;;;5075663;28;20020;-73
2022/03/31 00:36:29;;;;;;;32.78;13.02;;;;;;;;;;5079196;28;20089;-77
2022/03/31 00:41:39;;;;;;;23.25;9.82;;;;;;;;;;5079806;28;20089;-72
2022/03/31 00:44:05;;;;;;;24.60;10.68;;;;;;;;;;5070800;28;20031;-72
2022/03/31 00:46:30;;;;;;;21.85;9.40;;;;;;;;;;5067245;28;20041;-71
2022/03/31 00:48:56;;;;;;;24.23;8.02;;;;;;;;;;5078934;28;20042;-72
2022/03/31 00:51:21;;;;;;;26.85;8.50;;;;;;;;;;5076615;28;20023;-79
2022/03/31 00:53:47;;;;;;;26.23;9.35;;;;;;;;;;5073688;28;20024;-74
2022/03/31 00:56:12;;;;;;;26.88;9.25;;;;;;;;;;5078762;28;20620;-73
2022/03/31 00:58:38;;;;;;;24.33;10.70;;;;;;;;;;5068635;28;20572;-75
2022/03/31 01:01:03;;;;;;;29.90;13.32;;;;;;;;;;5075560;28;20059;-73
2022/03/31 01:03:29;;;;;;;24.73;12.50;;;;;;;;;;5071802;28;20028;-72
2022/03/31 01:05:55;;;;;;;26.90;9.73;;;;;;;;;;5078626;28;20032;-72
2022/03/31 01:08:21;;;;;;;22.08;8.25;;;;;;;;;;5068532;28;20106;-72
2022/03/31 01:10:49;;;;;;;22.23;8.77;;;;;;;;;;5078082;28;20073;-72
2022/03/31 01:13:14;;;;;;;22.58;9.25;;;;;;;;;;5077870;28;20028;-72
2022/03/31 01:15:40;;;;;;;21.40;8.48;;;;;;;;;;5065385;28;20020;-71
2022/03/31 01:18:05;;;;;;;21.38;7.97;;;;;;;;;;5064983;28;20027;-71
2022/03/31 01:20:31;;;;;;;19.95;7.47;;;;;;;;;;5070524;28;20067;-74
2022/03/31 01:22:56;;;;;;;23.40;8.20;;;;;;;;;;5078910;28;20339;-72
2022/03/31 01:25:22;;;;;;;22.55;8.55;;;;;;;;;;5079500;28;20038;-76
2022/03/31 01:27:48;;;;;;;19.85;7.93;;;;;;;;;;5069800;28;20036;-73
2022/03/31 01:30:16;;;;;;;24.13;7.72;;;;;;;;;;5072743;28;20031;-75
2022/03/31 01:32:43;;;;;;;23.33;9.23;;;;;;;;;;5078963;28;20026;-77
2022/03/31 01:35:08;;;;;;;26.52;9.88;;;;;;;;;;5066699;28;20054;-73
2022/03/31 01:37:34;;;;;;;28.60;8.57;;;;;;;;;;5064114;28;21124;-72
2022/03/31 01:39:59;;;;;;;19.27;7.43;;;;;;;;;;5077605;28;20036;-72
2022/03/31 01:42:25;;;;;;;17.98;7.28;;;;;;;;;;5077989;28;20895;-73
2022/03/31 01:44:50;;;;;;;27.10;7.93;;;;;;;;;;5077449;28;20446;-76
2022/03/31 01:47:16;;;;;;;19.27;7.05;;;;;;;;;;5076583;28;20038;-75
2022/03/31 01:49:41;;;;;;;23.95;8.60;;;;;;;;;;5080101;28;20071;-72
2022/03/31 01:52:07;;;;;;;22.40;7.72;;;;;;;;;;5078803;28;20647;-74
2022/03/31 01:54:34;;;;;;;25.25;7.35;;;;;;;;;;5066769;28;20016;-72
2022/03/31 01:56:59;;;;;;;19.52;6.60;;;;;;;;;;5065885;28;20040;-71
2022/03/31 01:59:31;;;;;;;25.90;10.65;;;;;;;;;;5066692;28;20498;-71
2022/03/31 02:01:56;;;;;;;23.88;11.77;;;;;;;;;;5073017;28;20347;-72
2022/03/31 02:04:21;;;;;;;27.40;13.60;;;;;;;;;;5077104;28;20024;-71
2022/03/31 02:06:47;;;;;;;23.08;11.13;;;;;;;;;;5063515;28;20036;-77
2022/03/31 02:09:12;;;;;;;21.80;7.25;;;;;;;;;;5066710;28;20035;-72
2022/03/31 02:11:37;;;;;;;23.77;7.97;;;;;;;;;;5066828;28;20030;-71
2022/03/31 02:14:03;;;;;;;22.17;8.57;;;;;;;;;;5078927;28;20171;-73
2022/03/31 02:16:28;;;;;;;29.65;8.57;;;;;;;;;;5063357;28;20042;-72
2022/03/31 02:18:54;;;;;;;25.23;8.75;;;;;;;;;;5063982;28;20039;-71
2022/03/31 02:21:19;;;;;;;22.13;8.40;;;;;;;;;;5063124;28;20032;-71
2022/03/31 02:23:45;;;;;;;30.38;9.82;;;;;;;;;;5078070;28;20112;-70
2022/03/31 02:26:10;;;;;;;26.65;8.93;;;;;;;;;;5078007;28;20043;-70
2022/03/31 02:28:36;;;;;;;24.48;8.35;;;;;;;;;;5074324;28;20023;-77
2022/03/31 02:31:01;;;;;;;21.85;8.48;;;;;;;;;;5068404;28;20020;-73
2022/03/31 02:33:26;;;;;;;27.25;9.50;;;;;;;;;;5074354;28;20039;-71
2022/03/31 02:35:52;;;;;;;31.85;11.98;;;;;;;;;;5074565;28;20043;-75
2022/03/31 02:38:17;;;;;;;29.50;12.20;;;;;;;;;;5068851;28;20031;-72
2022/03/31 02:40:43;;;;;;;39.55;14.50;;;;;;;;;;5077731;28;20038;-71
2022/03/31 02:43:10;;;;;;;34.53;11.88;;;;;;;;;;5079233;28;20047;-71
2022/03/31 02:45:36;;;;;;;23.67;8.80;;;;;;;;;;5065110;28;20107;-78
2022/03/31 02:48:01;;;;;;;24.20;8.07;;;;;;;;;;5069251;28;20169;-73
2022/03/31 02:50:27;;;;;;;33.95;8.73;;;;;;;;;;5069712;28;20456;-72
2022/03/31 02:55:36;;;;;;;37.60;15.15;;;;;;;;;;5078873;28;20526;-72
2022/03/31 02:58:02;;;;;;;34.63;13.75;;;;;;;;;;5075208;28;20144;-73
2022/03/31 03:00:32;;;;;;;27.50;9.93;;;;;;;;;;5076766;28;20012;-73
2022/03/31 03:03:03;;;;;;;21.05;6.63;;;;;;;;;;5075311;28;20024;-72
2022/03/31 03:05:28;;;;;;;25.95;9.75;;;;;;;;;;5076679;28;20074;-73
2022/03/31 03:07:53;;;;;;;32.10;10.48;;;;;;;;;;5064916;28;20059;-72
2022/03/31 03:10:19;;;;;;;21.23;9.20;;;;;;;;;;5073277;28;20471;-73
2022/03/31 03:12:44;;;;;;;39.45;12.27;;;;;;;;;;5074085;28;20044;-73
2022/03/31 03:15:10;;;;;;;35.75;13.10;;;;;;;;;;5078339;28;20031;-77
2022/03/31 03:17:43;;;;;;;33.40;11.20;;;;;;;;;;5071218;28;20382;-77
2022/03/31 03:20:13;;;;;;;36.13;15.32;;;;;;;;;;5067109;28;20040;-72
2022/03/31 03:22:41;;;;;;;39.13;13.23;;;;;;;;;;5076785;28;20505;-72
2022/03/31 03:25:07;;;;;;;47.70;13.70;;;;;;;;;;5064706;28;20024;-72
2022/03/31 03:27:32;;;;;;;26.05;9.38;;;;;;;;;;5073125;28;20031;-75
2022/03/31 03:29:58;;;;;;;23.27;7.05;;;;;;;;;;5069532;28;20021;-72
2022/03/31 03:32:23;;;;;;;25.90;8.38;;;;;;;;;;5078594;28;20111;-75
2022/03/31 03:34:49;;;;;;;25.63;10.02;;;;;;;;;;5078170;28;20448;-73
2022/03/31 03:37:14;;;;;;;34.03;13.30;;;;;;;;;;5091257;28;20032;-73
2022/03/31 03:39:39;;;;;;;29.15;10.57;;;;;;;;;;5072836;28;20352;-73
2022/03/31 03:42:05;;;;;;;24.88;9.43;;;;;;;;;;5077185;28;20051;-71
2022/03/31 03:44:30;;;;;;;19.58;6.47;;;;;;;;;;5075755;28;20028;-73
2022/03/31 03:46:56;;;;;;;21.98;6.72;;;;;;;;;;5070151;28;20082;-72
2022/03/31 03:49:21;;;;;;;29.25;8.52;;;;;;;;;;5067546;28;20052;-76
2022/03/31 03:51:47;;;;;;;31.08;11.00;;;;;;;;;;5069183;28;20035;-73
2022/03/31 03:54:12;;;;;;;32.55;13.25;;;;;;;;;;5068695;28;20059;-72
2022/03/31 03:56:38;;;;;;;27.92;11.63;;;;;;;;;;5066963;28;20088;-72
2022/03/31 03:59:04;;;;;;;28.95;11.02;;;;;;;;;;5073704;28;20091;-72
2022/03/31 04:01:29;;;;;;;30.13;11.02;;;;;;;;;;5080476;28;20046;-73
2022/03/31 04:03:55;;;;;;;28.90;9.38;;;;;;;;;;5082470;28;20357;-75
2022/03/31 04:06:20;;;;;;;33.15;8.43;;;;;;;;;;5079822;28;20524;-74
2022/03/31 04:08:46;;;;;;;42.05;16.65;;;;;;;;;;5081488;28;20032;-72
2022/03/31 04:11:11;;;;;;;38.90;15.05;;;;;;;;;;5078893;28;20405;-78
2022/03/31 04:13:36;;;;;;;46.88;23.85;;;;;;;;;;5081351;28;20024;-76
2022/03/31 04:16:03;;;;;;;61.17;28.15;;;;;;;;;;5070834;28;20074;-73
2022/03/31 04:18:29;;;;;;;46.17;25.75;;;;;;;;;;5067121;28;20503;-73
2022/03/31 04:20:54;;;;;;;46.88;20.88;;;;;;;;;;5076500;28;20119;-73
2022/03/31 04:23:20;;;;;;;34.58;15.32;;;;;;;;;;5077687;28;20031;-72
2022/03/31 04:25:45;;;;;;;37.35;17.13;;;;;;;;;;5080348;28;20020;-78
2022/03/31 04:28:10;;;;;;;29.90;12.60;;;;;;;;;;5080298;28;20028;-75
2022/03/31 04:30:36;;;;;;;24.95;10.57;;;;;;;;;;5072539;28;20030;-72
2022/03/31 04:33:01;;;;;;;30.98;10.13;;;;;;;;;;5068840;28;20059;-77
2022/03/31 04:35:26;;;;;;;28.27;10.40;;;;;;;;;;5074667;28;20089;-74
2022/03/31 04:37:52;;;;;;;20.27;7.60;;;;;;;;;;5068093;28;20080;-75
2022/03/31 04:40:17;;;;;;;25.05;7.20;;;;;;;;;;5067916;28;20424;-75
2022/03/31 04:42:42;;;;;;;88.38;42.42;;;;;;;;;;5067590;28;20027;-75
2022/03/31 04:45:08;;;;;;;172.80;82.97;;;;;;;;;;5066954;28;20024;-78
2022/03/31 04:47:34;;;;;;;166.35;69.97;;;;;;;;;;5065000;28;20043;-72
2022/03/31 04:49:59;;;;;;;252.25;91.15;;;;;;;;;;5077645;28;20048;-75
2022/03/31 04:52:25;;;;;;;151.32;41.65;;;;;;;;;;5080692;28;20099;-72
2022/03/31 04:54:51;;;;;;;542.13;157.13;;;;;;;;;;5079107;28;20028;-75
2022/03/31 04:57:21;;;;;;;68.97;18.75;;;;;;;;;;5078117;28;20036;-75
2022/03/31 04:59:46;;;;;;;33.13;13.43;;;;;;;;;;5072544;28;20070;-76
2022/03/31 05:02:12;;;;;;;58.42;26.25;;;;;;;;;;5075671;28;20071;-78
2022/03/31 05:04:38;;;;;;;71.35;32.95;;;;;;;;;;5080871;28;20834;-76
2022/03/31 05:07:04;;;;;;;54.58;23.95;;;;;;;;;;5080059;28;20067;-76
2022/03/31 05:09:29;;;;;;;47.75;18.95;;;;;;;;;;5077533;28;20440;-72
2022/03/31 05:11:55;;;;;;;42.53;18.85;;;;;;;;;;5073599;28;20031;-72
2022/03/31 05:14:21;;;;;;;47.20;17.50;;;;;;;;;;5072938;28;20446;-71
2022/03/31 05:16:46;;;;;;;38.15;14.43;;;;;;;;;;5077245;28;20032;-71
2022/03/31 05:19:12;;;;;;;41.15;18.30;;;;;;;;;;5071845;28;20101;-71
2022/03/31 05:21:37;;;;;;;53.63;29.50;;;;;;;;;;5079432;28;20093;-71
2022/03/31 05:24:03;;;;;;;47.90;24.55;;;;;;;;;;5079709;28;20032;-71
2022/03/31 05:26:29;;;;;;;55.20;26.05;;;;;;;;;;5081430;28;20028;-72
2022/03/31 05:28:54;;;;;;;70.82;32.70;;;;;;;;;;5077933;28;20028;-71
2022/03/31 05:31:19;;;;;;;57.97;26.38;;;;;;;;;;5077556;28;20042;-73
2022/03/31 05:33:45;;;;;;;59.45;24.95;;;;;;;;;;5080214;28;20025;-72
2022/03/31 05:36:10;;;;;;;55.53;27.17;;;;;;;;;;5076318;28;20066;-71
2022/03/31 05:38:35;;;;;;;46.85;20.88;;;;;;;;;;5068824;28;20028;-70
2022/03/31 05:41:01;;;;;;;59.63;25.30;;;;;;;;;;5080676;28;20066;-72
2022/03/31 05:43:27;;;;;;;49.83;19.85;;;;;;;;;;5078062;28;20028;-73
2022/03/31 05:45:52;;;;;;;54.13;22.38;;;;;;;;;;5095397;28;20028;-73
2022/03/31 05:48:17;;;;;;;56.28;20.48;;;;;;;;;;5085873;28;20016;-75
2022/03/31 05:50:43;;;;;;;52.22;21.77;;;;;;;;;;5086854;28;20052;-75
2022/03/31 05:53:08;;;;;;;93.15;42.55;;;;;;;;;;5086335;28;20028;-74
2022/03/31 05:55:34;;;;;;;125.65;55.33;;;;;;;;;;5086393;28;20028;-76
2022/03/31 05:57:59;;;;;;;81.07;37.15;;;;;;;;;;5085798;28;20392;-73
2022/03/31 06:00:24;;;;;;;72.53;31.52;;;;;;;;;;5086733;28;20021;-73
2022/03/31 06:02:52;;;;;;;58.53;28.25;;;;;;;;;;5071755;28;20766;-75
2022/03/31 06:05:18;;;;;;;55.30;26.10;;;;;;;;;;5065593;28;20420;-80
2022/03/31 06:07:44;;;;;;;73.57;33.47;;;;;;;;;;5073923;28;20624;-72
2022/03/31 06:10:09;;;;;;;93.15;48.72;;;;;;;;;;5079166;28;20450;-73
2022/03/31 06:12:34;;;;;;;124.85;67.82;;;;;;;;;;5079373;28;20028;-77
2022/03/31 06:15:03;;;;;;;113.63;62.35;;;;;;;;;;5071347;28;20027;-73
2022/03/31 06:17:29;;;;;;;92.97;53.28;;;;;;;;;;5065832;28;20512;-74
2022/03/31 06:19:54;;;;;;;78.20;43.25;;;;;;;;;;5065969;28;20028;-74
2022/03/31 06:22:19;;;;;;;87.32;42.80;;;;;;;;;;5062250;28;20028;-75
2022/03/31 06:24:45;;;;;;;110.00;43.33;;;;;;;;;;5065880;28;20047;-73
2022/03/31 06:27:11;;;;;;;113.05;53.78;;;;;;;;;;5076769;28;20040;-72
2022/03/31 06:29:37;;;;;;;225.10;99.97;;;;;;;;;;5075565;28;20792;-76
2022/03/31 06:32:02;;;;;;;172.30;78.28;;;;;;;;;;5077553;28;20039;-75
2022/03/31 06:34:28;;;;;;;148.05;67.25;;;;;;;;;;5079759;28;20516;-72
2022/03/31 06:36:54;;;;;;;140.13;68.85;;;;;;;;;;5078458;28;20025;-75
2022/03/31 06:39:19;;;;;;;115.07;53.38;;;;;;;;;;5064073;28;20123;-78
2022/03/31 06:41:45;;;;;;;93.38;52.80;;;;;;;;;;5071178;28;20024;-74
2022/03/31 06:44:13;;;;;;;78.75;44.80;;;;;;;;;;5075926;28;20911;-72
2022/03/31 06:46:38;;;;;;;81.22;43.42;;;;;;;;;;5068038;28;20036;-72
2022/03/31 06:49:04;;;;;;;67.15;38.45;;;;;;;;;;5059911;28;20553;-73
2022/03/31 06:51:29;;;;;;;67.35;35.35;;;;;;;;;;5061088;28;20117;-72
2022/03/31 06:53:57;;;;;;;65.05;31.73;;;;;;;;;;5060818;28;20198;-73
2022/03/31 06:56:23;;;;;;;57.75;31.50;;;;;;;;;;5062854;28;20027;-72
2022/03/31 06:58:49;;;;;;;50.38;23.10;;;;;;;;;;5060463;28;20020;-77
2022/03/31 07:01:14;;;;;;;74.80;32.10;;;;;;;;;;5062101;28;20093;-74
2022/03/31 07:03:39;;;;;;;61.60;28.33;;;;;;;;;;5061387;28;20582;-76
2022/03/31 07:06:06;;;;;;;81.57;33.30;;;;;;;;;;5061226;28;20093;-79
2022/03/31 07:08:33;;;;;;;62.92;26.85;;;;;;;;;;5062154;28;20961;-72
2022/03/31 07:10:59;;;;;;;48.65;26.30;;;;;;;;;;5062785;28;20028;-75
2022/03/31 07:13:25;;;;;;;50.70;25.35;;;;;;;;;;5063844;28;20423;-78
2022/03/31 07:15:50;;;;;;;70.32;39.10;;;;;;;;;;5066549;28;20035;-81
2022/03/31 07:18:15;;;;;;;48.20;19.05;;;;;;;;;;5067572;28;20641;-81
2022/03/31 07:20:41;;;;;;;34.42;14.35;;;;;;;;;;5069175;28;20764;-82
2022/03/31 07:23:06;;;;;;;29.25;13.80;;;;;;;;;;5071579;28;20020;-79
2022/03/31 07:25:32;;;;;;;29.77;10.88;;;;;;;;;;5071889;28;20438;-80
2022/03/31 07:27:57;;;;;;;71.55;29.80;;;;;;;;;;5075737;28;20043;-77
2022/03/31 07:30:24;;;;;;;75.00;40.35;;;;;;;;;;5069257;28;20064;-74
2022/03/31 07:32:51;;;;;;;83.75;45.90;;;;;;;;;;5065572;28;20464;-73
2022/03/31 07:35:17;;;;;;;52.25;27.55;;;;;;;;;;5065853;28;20028;-72
2022/03/31 07:37:42;;;;;;;44.40;22.05;;;;;;;;;;5067434;28;20077;-72
2022/03/31 07:40:08;;;;;;;53.50;27.55;;;;;;;;;;5066057;28;20024;-77
2022/03/31 07:42:33;;;;;;;51.47;19.15;;;;;;;;;;5066703;28;20073;-77
2022/03/31 07:44:58;;;;;;;43.72;18.65;;;;;;;;;;5063089;28;20035;-77
2022/03/31 07:47:24;;;;;;;38.35;18.52;;;;;;;;;;5066639;28;20028;-77
2022/03/31 07:49:49;;;;;;;35.08;14.52;;;;;;;;;;5066731;28;20375;-74
2022/03/31 07:52:15;;;;;;;39.00;16.20;;;;;;;;;;5065876;28;20097;-77
2022/03/31 07:54:41;;;;;;;40.80;16.60;;;;;;;;;;5067845;28;20038;-76
2022/03/31 07:57:06;;;;;;;37.55;13.73;;;;;;;;;;5063413;28;20039;-77
2022/03/31 07:59:33;;;;;;;34.65;14.52;;;;;;;;;;5063808;28;20372;-78
2022/03/31 08:01:59;;;;;;;46.70;24.42;;;;;;;;;;5065503;28;20038;-73
2022/03/31 08:04:25;;;;;;;70.10;32.28;;;;;;;;;;5065944;28;20023;-76
2022/03/31 08:06:50;;;;;;;44.88;20.00;;;;;;;;;;5076991;28;20400;-79
2022/03/31 08:09:20;;;;;;;41.88;22.48;;;;;;;;;;5073868;28;20229;-76
2022/03/31 08:11:46;;;;;;;91.68;64.97;;;;;;;;;;5078126;28;20513;-77
2022/03/31 08:14:11;;;;;;;42.83;22.25;;;;;;;;;;5079288;28;20036;-74
2022/03/31 08:16:36;;;;;;;35.85;11.48;;;;;;;;;;5084974;28;20044;-76
2022/03/31 08:19:02;;;;;;;29.50;9.90;;;;;;;;;;5067270;28;20419;-78
2022/03/31 08:21:27;;;;;;;37.90;14.25;;;;;;;;;;5075050;28;20020;-75
2022/03/31 08:23:53;;;;;;;32.10;13.63;;;;;;;;;;5078463;28;20089;-76
2022/03/31 08:26:18;;;;;;;32.88;13.25;;;;;;;;;;5081162;28;20371;-75
2022/03/31 08:28:44;;;;;;;30.33;12.18;;;;;;;;;;5079580;28;20487;-75
2022/03/31 08:31:09;;;;;;;27.88;12.25;;;;;;;;;;5077490;28;20037;-73
2022/03/31 08:33:35;;;;;;;30.67;12.48;;;;;;;;;;5061929;28;20078;-72
2022/03/31 08:36:00;;;;;;;35.08;9.70;;;;;;;;;;5069052;28;20070;-73
2022/03/31 08:38:25;;;;;;;31.30;14.20;;;;;;;;;;5080272;28;20027;-75
2022/03/31 08:40:53;;;;;;;69.30;33.55;;;;;;;;;;5080496;28;20107;-73
2022/03/31 08:43:19;;;;;;;144.45;82.82;;;;;;;;;;5078910;28;20096;-75
2022/03/31 08:45:49;;;;;;;128.02;68.80;;;;;;;;;;5095752;28;20504;-75
2022/03/31 08:48:14;;;;;;;125.30;65.60;;;;;;;;;;5077342;28;20046;-75
2022/03/31 08:50:40;;;;;;;129.65;73.43;;;;;;;;;;5073362;28;20048;-75
2022/03/31 08:53:05;;;;;;;88.43;48.78;;;;;;;;;;5063069;28;20566;-76
2022/03/31 08:55:30;;;;;;;93.70;49.92;;;;;;;;;;5066263;28;20028;-72
2022/03/31 08:57:56;;;;;;;81.03;44.97;;;;;;;;;;5078623;28;20024;-73
2022/03/31 09:00:22;;;;;;;56.78;28.92;;;;;;;;;;5077650;28;20024;-76
2022/03/31 09:03:01;;;;;;;51.55;24.20;;;;;;;;;;5078961;28;20115;-76
2022/03/31 09:05:28;;;;;;;69.18;34.70;;;;;;;;;;5072042;28;20020;-79
2022/03/31 09:07:54;;;;;;;69.72;35.15;;;;;;;;;;5064870;28;20035;-76
2022/03/31 09:10:25;;;;;;;48.05;21.30;;;;;;;;;;5071282;28;20471;-79
2022/03/31 09:12:51;;;;;;;53.20;22.25;;;;;;;;;;5066364;28;20043;-78
2022/03/31 09:15:16;;;;;;;89.50;44.08;;;;;;;;;;5080383;28;20385;-76
2022/03/31 09:17:41;;;;;;;111.57;54.55;;;;;;;;;;5080222;28;20035;-74
2022/03/31 09:20:07;;;;;;;85.18;38.55;;;;;;;;;;5072257;28;20027;-76
2022/03/31 09:22:44;;;;;;;60.35;28.00;;;;;;;;;;5063371;28;20463;-77
2022/03/31 09:25:10;;;;;;;58.70;24.83;;;;;;;;;;5062737;28;20039;-75
2022/03/31 09:27:36;;;;;;;92.70;42.60;;;;;;;;;;5067111;28;20118;-76
2022/03/31 09:30:05;;;;;;;85.72;40.78;;;;;;;;;;5080417;28;20486;-75
2022/03/31 09:32:30;;;;;;;77.10;34.78;;;;;;;;;;5081048;28;20031;-77
2022/03/31 09:35:03;;;;;;;70.45;32.60;;;;;;;;;;5079148;28;20028;-76
2022/03/31 09:37:32;;;;;;;108.07;52.50;;;;;;;;;;5068520;28;20116;-78
2022/03/31 09:39:57;;;;;;;69.55;30.52;;;;;;;;;;5077282;28;20028;-73
2022/03/31 09:42:23;;;;;;;50.92;26.63;;;;;;;;;;5078865;28;20094;-73
2022/03/31 09:45:00;;;;;;;71.13;37.17;;;;;;;;;;5075004;28;20446;-77
2022/03/31 09:47:26;;;;;;;41.50;18.02;;;;;;;;;;5060567;28;20040;-76
2022/03/31 09:49:54;;;;;;;41.65;16.58;;;;;;;;;;5063091;28;20093;-75
2022/03/31 09:52:20;;;;;;;50.85;22.13;;;;;;;;;;5062109;28;20035;-77
2022/03/31 09:54:47;;;;;;;58.92;32.22;;;;;;;;;;5063156;28;20031;-77
2022/03/31 09:57:13;;;;;;;39.53;15.70;;;;;;;;;;5059031;28;20338;-78
2022/03/31 09:59:41;;;;;;;39.78;18.73;;;;;;;;;;5062499;28;20044;-76
2022/03/31 10:02:07;;;;;;;36.83;16.45;;;;;;;;;;5064818;28;20075;-76
2022/03/31 10:04:34;;;;;;;59.58;27.98;;;;;;;;;;5061034;28;20431;-75
2022/03/31 10:06:59;;;;;;;36.55;14.32;;;;;;;;;;5077731;28;20399;-73
2022/03/31 10:09:25;;;;;;;41.63;18.02;;;;;;;;;;5063463;28;20028;-74
2022/03/31 10:11:57;;;;;;;39.85;18.60;;;;;;;;;;5061549;28;20351;-75
2022/03/31 10:14:22;;;;;;;58.13;25.90;;;;;;;;;;5063156;28;20034;-74
2022/03/31 10:16:54;;;;;;;58.33;27.88;;;;;;;;;;5062469;28;20031;-77
2022/03/31 10:19:38;;;;;;;46.30;22.60;;;;;;;;;;5061192;28;20024;-75
2022/03/31 10:25:05;;;;;;;45.47;21.02;;;;;;;;;;5060941;28;20084;-76
2022/03/31 10:27:32;;;;;;;84.32;48.88;;;;;;;;;;5062419;28;20042;-74
2022/03/31 10:30:09;;;;;;;61.67;30.45;;;;;;;;;;5063399;28;20103;-75
2022/03/31 10:32:34;;;;;;;83.43;40.00;;;;;;;;;;5062102;28;20019;-73
2022/03/31 10:34:59;;;;;;;109.32;54.47;;;;;;;;;;5058860;28;20028;-74
2022/03/31 10:37:31;;;;;;;94.18;49.70;;;;;;;;;;5061352;28;20103;-73
2022/03/31 10:39:56;;;;;;;60.40;32.30;;;;;;;;;;5062506;28;20024;-76
2022/03/31 10:42:23;;;;;;;40.55;17.85;;;;;;;;;;5062497;28;20020;-72
2022/03/31 10:44:49;;;;;;;31.58;12.65;;;;;;;;;;5058990;28;20509;-72
2022/03/31 10:47:14;;;;;;;124.35;51.47;;;;;;;;;;5062512;28;20028;-73
2022/03/31 10:49:50;;;;;;;101.18;50.90;;;;;;;;;;5060396;28;20510;-73
2022/03/31 10:52:19;;;;;;;57.28;28.33;;;;;;;;;;5063270;28;20444;-75
2022/03/31 10:54:44;;;;;;;37.80;15.13;;;;;;;;;;5064729;28;20458;-74
2022/03/31 10:57:13;;;;;;;105.10;46.17;;;;;;;;;;5076991;28;20036;-72
2022/03/31 10:59:39;;;;;;;42.78;16.20;;;;;;;;;;5077173;28;20039;-73
2022/03/31 11:02:09;;;;;;;27.45;7.40;;;;;;;;;;5077605;28;21146;-74
2022/03/31 11:04:47;;;;;;;19.05;5.90;;;;;;;;;;5077354;28;20024;-75
2022/03/31 11:07:16;;;;;;;39.15;18.90;;;;;;;;;;5076945;28;20792;-77
2022/03/31 11:09:43;;;;;;;;;;;;;;;;;;5074193;28;20085;-75
2022/03/31 11:12:08;;;;;;;57.35;27.27;;;;;;;;;;5069601;28;19916;-75
2022/03/31 11:14:34;;;;;;;35.58;15.88;;;;;;;;;;5075704;28;20116;-74
2022/03/31 11:16:59;;;;;;;32.95;12.43;;;;;;;;;;5077137;28;20040;-74
2022/03/31 11:19:34;;;;;;;24.52;8.43;;;;;;;;;;5078457;28;20115;-74
2022/03/31 11:21:59;;;;;;;29.20;11.38;;;;;;;;;;5078971;28;20024;-77
2022/03/31 11:24:24;;;;;;;22.63;6.18;;;;;;;;;;5078973;28;20024;-75
2022/03/31 11:26:50;;;;;;;24.88;7.00;;;;;;;;;;5083235;28;20126;-75
2022/03/31 11:29:17;;;;;;;26.38;6.90;;;;;;;;;;5084300;28;20220;-75
2022/03/31 11:31:50;;;;;;;20.48;5.03;;;;;;;;;;5089381;28;20043;-76
2022/03/31 11:34:21;;;;;;;25.15;8.48;;;;;;;;;;5087648;28;20435;-76
2022/03/31 11:36:47;;;;;;;32.28;10.57;;;;;;;;;;5084138;28;20081;-75
2022/03/31 11:39:13;;;;;;;21.13;7.88;;;;;;;;;;5077946;28;20071;-76
2022/03/31 11:41:39;;;;;;;21.27;5.57;;;;;;;;;;5076168;28;20067;-75
2022/03/31 11:44:07;;;;;;;28.60;8.30;;;;;;;;;;5079628;28;20115;-76
2022/03/31 11:46:49;;;;;;;25.17;6.93;;;;;;;;;;5088267;28;20032;-76
2022/03/31 11:49:17;;;;;;;22.25;9.95;;;;;;;;;;5077043;28;20035;-77
2022/03/31 11:51:53;;;;;;;24.35;8.07;;;;;;;;;;5076222;28;20420;-74
2022/03/31 11:54:19;;;;;;;25.65;6.13;;;;;;;;;;5072546;28;20035;-75
2022/03/31 11:56:45;;;;;;;26.27;7.50;;;;;;;;;;5073277;28;20362;-74
2022/03/31 11:59:10;;;;;;;23.13;6.13;;;;;;;;;;5075283;28;20024;-75
2022/03/31 12:01:43;;;;;;;31.15;8.60;;;;;;;;;;5072740;28;20035;-75
2022/03/31 12:04:21;;;;;;;30.67;7.53;;;;;;;;;;5077319;28;20025;-76
2022/03/31 12:06:57;;;;;;;35.75;10.90;;;;;;;;;;5078939;28;20355;-74
2022/03/31 12:09:26;;;;;;;33.30;8.07;;;;;;;;;;5080168;28;20047;-74
2022/03/31 12:11:52;;;;;;;34.50;7.72;;;;;;;;;;5078304;28;20024;-76
2022/03/31 12:14:17;;;;;;;23.02;6.30;;;;;;;;;;5078629;28;20351;-74
2022/03/31 12:16:43;;;;;;;26.48;5.95;;;;;;;;;;5079556;28;20425;-75
2022/03/31 12:19:08;;;;;;;31.70;6.78;;;;;;;;;;5082025;28;20347;-74
2022/03/31 12:21:43;;;;;;;28.63;8.43;;;;;;;;;;5080866;28;20775;-74
2022/03/31 12:24:10;;;;;;;28.27;7.53;;;;;;;;;;5080745;28;20029;-75
2022/03/31 12:26:35;;;;;;;33.55;8.35;;;;;;;;;;5079310;28;20343;-75
2022/03/31 12:29:01;;;;;;;33.55;7.95;;;;;;;;;;5081804;28;20031;-75
2022/03/31 12:31:31;;;;;;;27.45;8.70;;;;;;;;;;5081116;28;20016;-77
2022/03/31 12:33:58;;;;;;;32.50;9.73;;;;;;;;;;5079683;28;20020;-76
2022/03/31 12:36:24;;;;;;;35.20;11.13;;;;;;;;;;5080638;28;20032;-77
2022/03/31 12:38:51;;;;;;;29.05;8.55;;;;;;;;;;5081066;28;20024;-75
2022/03/31 12:41:26;;;;;;;35.67;14.55;;;;;;;;;;5080460;28;20031;-74
2022/03/31 12:44:20;;;;;;;58.13;21.35;;;;;;;;;;5079460;28;20024;-74
2022/03/31 12:46:47;;;;;;;43.83;18.70;;;;;;;;;;5080397;28;20040;-74
2022/03/31 12:49:13;;;;;;;45.03;20.60;;;;;;;;;;5070141;28;20934;-77
2022/03/31 12:51:43;;;;;;;44.83;17.35;;;;;;;;;;5084476;28;20036;-73
2022/03/31 12:54:28;;;;;;;51.08;22.30;;;;;;;;;;5076402;28;20348;-73
2022/03/31 12:56:55;;;;;;;66.20;27.63;;;;;;;;;;5065861;28;20495;-75
2022/03/31 12:59:29;;;;;;;66.75;30.05;;;;;;;;;;5069980;28;20040;-73
2022/03/31 13:02:03;;;;;;;56.17;23.98;;;;;;;;;;5079591;28;20373;-74
2022/03/31 13:04:29;;;;;;;62.75;25.08;;;;;;;;;;5078831;28;20529;-76
2022/03/31 13:06:54;;;;;;;63.28;23.20;;;;;;;;;;5079618;28;20039;-74
2022/03/31 13:09:20;;;;;;;53.88;20.45;;;;;;;;;;5079623;28;20367;-75
2022/03/31 13:11:47;;;;;;;72.47;35.03;;;;;;;;;;5079105;28;20024;-75
2022/03/31 13:14:12;;;;;;;58.35;29.30;;;;;;;;;;5081250;28;20046;-74
2022/03/31 13:16:38;;;;;;;58.05;31.35;;;;;;;;;;5078920;28;20031;-76
2022/03/31 13:19:04;;;;;;;82.75;37.83;;;;;;;;;;5075897;28;20058;-74
2022/03/31 13:21:29;;;;;;;70.32;28.08;;;;;;;;;;5078394;28;20036;-72
2022/03/31 13:23:55;;;;;;;44.22;16.27;;;;;;;;;;5078639;28;20445;-73
2022/03/31 13:26:21;;;;;;;60.00;23.08;;;;;;;;;;5080431;28;20035;-74
2022/03/31 13:28:46;;;;;;;60.30;26.30;;;;;;;;;;5067093;28;20019;-73
2022/03/31 13:31:11;;;;;;;53.85;23.08;;;;;;;;;;5080144;28;20103;-76
2022/03/31 13:33:37;;;;;;;35.50;15.98;;;;;;;;;;5079528;28;20691;-74
2022/03/31 13:36:02;;;;;;;50.85;19.33;;;;;;;;;;5080383;28;20040;-78
2022/03/31 13:38:31;;;;;;;36.83;13.73;;;;;;;;;;5077834;28;20511;-73
2022/03/31 13:40:57;;;;;;;56.47;21.70;;;;;;;;;;5076837;28;20443;-77
2022/03/31 13:43:22;;;;;;;59.88;23.67;;;;;;;;;;5076094;28;20031;-78
2022/03/31 13:45:48;;;;;;;32.22;12.80;;;;;;;;;;5072746;28;20028;-73
2022/03/31 13:48:14;;;;;;;32.75;10.05;;;;;;;;;;5077173;28;20077;-74
2022/03/31 13:50:40;;;;;;;24.50;6.13;;;;;;;;;;5081167;28;20097;-73
2022/03/31 13:55:49;;;;;;;33.42;8.27;;;;;;;;;;5077174;28;20066;-71
2022/03/31 14:01:19;;;;;;;46.78;12.15;;;;;;;;;;5037340;28;20057;-73
2022/03/31 14:03:45;;;;;;;195.68;57.78;;;;;;;;;;5027805;28;20068;-72
2022/03/31 14:06:14;;;;;;;113.40;32.13;;;;;;;;;;5053874;28;20067;-77
2022/03/31 14:08:39;;;;;;;89.82;25.70;;;;;;;;;;5076071;28;20012;-74
2022/03/31 14:11:05;;;;;;;92.45;27.88;;;;;;;;;;5075975;28;20027;-74
2022/03/31 14:13:31;;;;;;;39.83;11.50;;;;;;;;;;5078259;28;20032;-75
2022/03/31 14:16:00;;;;;;;30.67;9.07;;;;;;;;;;5079231;28;20024;-73
2022/03/31 14:18:27;;;;;;;31.02;7.60;;;;;;;;;;5076423;28;20463;-72
2022/03/31 14:20:52;;;;;;;27.67;9.57;;;;;;;;;;5077341;28;20020;-73
2022/03/31 14:23:17;;;;;;;111.05;32.97;;;;;;;;;;5078100;28;20076;-78
2022/03/31 14:25:43;;;;;;;103.65;34.97;;;;;;;;;;5077875;28;20367;-74
2022/03/31 14:28:08;;;;;;;68.40;43.78;;;;;;;;;;5074473;28;20047;-72